createdAt,value
2023-05-07T00:00:26.889Z,20.81
2023-05-07T00:01:36.153Z,20.77
2023-05-07T00:02:59.515Z,20.74
2023-05-07T00:04:02.714Z,20.71
2023-05-07T00:05:06.990Z,20.72
2023-05-07T00:06:11.278Z,20.69
2023-05-07T00:07:15.047Z,20.68
2023-05-07T00:08:17.305Z,20.67
2023-05-07T00:09:20.652Z,20.64
2023-05-07T00:10:23.284Z,20.61
2023-05-07T00:11:37.317Z,20.56
2023-05-07T00:12:40.737Z,20.53
2023-05-07T00:13:44.022Z,20.51
2023-05-07T00:14:46.603Z,20.50
2023-05-07T00:15:49.979Z,20.47
2023-05-07T00:16:52.440Z,20.44
2023-05-07T00:17:56.587Z,20.41
2023-05-07T00:18:59.226Z,20.36
2023-05-07T00:20:02.530Z,20.35
2023-05-07T00:21:05.418Z,20.32
2023-05-07T00:22:11.437Z,20.32
2023-05-07T00:23:14.252Z,20.29
2023-05-07T00:24:18.089Z,20.27
2023-05-07T00:25:20.933Z,20.26
2023-05-07T00:26:24.562Z,20.26
2023-05-07T00:27:27.081Z,20.26
2023-05-07T00:28:30.377Z,20.25
2023-05-07T00:29:33.167Z,20.25
2023-05-07T00:30:36.565Z,20.26
2023-05-07T00:31:38.997Z,20.24
2023-05-07T00:32:42.422Z,20.22
2023-05-07T00:33:44.831Z,20.19
2023-05-07T00:34:48.144Z,20.20
2023-05-07T00:35:50.486Z,20.16
2023-05-07T00:36:54.257Z,20.14
2023-05-07T00:37:58.125Z,20.12
2023-05-07T00:39:04.490Z,20.11
2023-05-07T00:40:08.932Z,20.10
2023-05-07T00:41:12.455Z,20.09
2023-05-07T00:42:16.149Z,20.10
2023-05-07T00:43:19.530Z,20.09
2023-05-07T00:44:22.346Z,20.09
2023-05-07T00:45:28.236Z,20.08
2023-05-07T00:46:32.646Z,20.05
2023-05-07T00:47:36.139Z,20.01
2023-05-07T00:48:38.560Z,19.99
2023-05-07T00:49:45.136Z,19.94
2023-05-07T00:50:48.249Z,19.91
2023-05-07T00:51:52.684Z,19.88
2023-05-07T00:52:57.397Z,19.87
2023-05-07T00:54:02.160Z,19.89
2023-05-07T00:55:08.970Z,19.90
2023-05-07T00:56:12.321Z,19.93
2023-05-07T00:57:16.871Z,19.97
2023-05-07T00:58:19.277Z,19.99
2023-05-07T00:59:22.585Z,20.00
2023-05-07T01:00:26.773Z,20.01
2023-05-07T01:01:31.999Z,19.98
2023-05-07T01:02:34.562Z,19.95
2023-05-07T01:03:38.450Z,19.94
2023-05-07T01:04:41.563Z,19.87
2023-05-07T01:05:47.527Z,19.83
2023-05-07T01:06:51.081Z,19.83
2023-05-07T01:07:57.229Z,19.85
2023-05-07T01:09:02.324Z,19.87
2023-05-07T01:10:06.718Z,19.86
2023-05-07T01:11:10.152Z,19.88
2023-05-07T01:12:15.266Z,19.87
2023-05-07T01:13:17.947Z,19.81
2023-05-07T01:14:22.608Z,19.77
2023-05-07T01:15:25.315Z,19.72
2023-05-07T01:16:28.999Z,19.66
2023-05-07T01:17:34.948Z,19.64
2023-05-07T01:18:38.350Z,19.59
2023-05-07T01:19:40.782Z,19.50
2023-05-07T01:20:45.125Z,19.44
2023-05-07T01:21:49.355Z,19.40
2023-05-07T01:22:54.745Z,19.39
2023-05-07T01:23:58.444Z,19.35
2023-05-07T01:25:02.867Z,19.31
2023-05-07T01:26:05.976Z,19.24
2023-05-07T01:27:09.487Z,19.19
2023-05-07T01:28:12.264Z,19.10
2023-05-07T01:29:15.728Z,19.05
2023-05-07T01:30:19.966Z,19.00
2023-05-07T01:31:24.388Z,18.92
2023-05-07T01:32:34.188Z,18.92
2023-05-07T01:33:40.611Z,18.88
2023-05-07T01:34:44.504Z,18.84
2023-05-07T01:35:49.971Z,18.82
2023-05-07T01:36:53.627Z,18.81
2023-05-07T01:37:59.303Z,18.76
2023-05-07T01:39:03.327Z,18.74
2023-05-07T01:40:08.757Z,18.74
2023-05-07T01:41:13.018Z,18.73
2023-05-07T01:42:16.341Z,18.71
2023-05-07T01:43:19.027Z,18.73
2023-05-07T01:44:22.874Z,18.76
2023-05-07T01:45:26.905Z,18.76
2023-05-07T01:46:31.032Z,18.77
2023-05-07T01:47:34.864Z,18.79
2023-05-07T01:48:39.479Z,18.77
2023-05-07T01:49:43.144Z,18.79
2023-05-07T01:50:46.856Z,18.79
2023-05-07T01:51:49.809Z,18.79
2023-05-07T01:52:53.700Z,18.80
2023-05-07T01:53:57.786Z,18.80
2023-05-07T01:55:01.147Z,18.80
2023-05-07T01:56:03.814Z,18.81
2023-05-07T01:57:07.316Z,18.83
2023-05-07T01:58:09.727Z,18.88
2023-05-07T01:59:15.098Z,18.92
2023-05-07T02:00:18.632Z,18.94
2023-05-07T02:01:22.505Z,18.93
2023-05-07T02:02:26.550Z,18.90
2023-05-07T02:03:29.086Z,18.86
2023-05-07T02:04:32.970Z,18.83
2023-05-07T02:05:35.608Z,18.77
2023-05-07T02:06:39.178Z,18.72
2023-05-07T02:07:41.964Z,18.67
2023-05-07T02:08:45.429Z,18.64
2023-05-07T07:23:52.846Z,32.17
2023-05-07T07:24:55.365Z,32.23
2023-05-07T07:25:58.852Z,32.34
2023-05-07T07:27:02.302Z,32.49
2023-05-07T07:28:05.745Z,32.57
2023-05-07T07:29:08.088Z,32.70
2023-05-07T07:30:12.041Z,32.83
2023-05-07T07:31:15.041Z,32.91
2023-05-07T07:32:18.460Z,32.99
2023-05-07T07:33:20.985Z,33.03
2023-05-07T07:34:24.463Z,33.09
2023-05-07T07:35:27.082Z,33.03
2023-05-07T07:36:39.051Z,33.04
2023-05-07T07:37:50.969Z,33.07
2023-05-07T07:38:56.017Z,33.21
2023-05-07T07:39:59.442Z,33.42
2023-05-07T07:41:01.879Z,33.56
2023-05-07T07:42:05.390Z,33.67
2023-05-07T07:43:07.885Z,33.76
2023-05-07T07:44:15.967Z,33.81
2023-05-07T07:45:20.113Z,33.90
2023-05-07T07:46:22.582Z,34.04
2023-05-07T07:47:26.312Z,34.16
2023-05-07T07:48:28.864Z,34.16
2023-05-07T07:49:32.237Z,34.20
2023-05-07T07:50:44.557Z,34.40
2023-05-07T07:51:49.188Z,34.54
2023-05-07T07:52:52.479Z,34.66
2023-05-07T07:53:59.578Z,34.87
2023-05-07T07:55:02.299Z,35.08
2023-05-07T07:56:06.261Z,35.32
2023-05-07T07:57:08.694Z,35.54
2023-05-07T07:58:12.040Z,35.70
2023-05-07T07:59:19.274Z,35.85
2023-05-07T08:00:22.924Z,35.92
2023-05-07T08:01:36.549Z,35.98
2023-05-07T08:02:39.069Z,35.91
2023-05-07T08:03:42.665Z,35.73
2023-05-07T08:04:45.633Z,35.73
2023-05-07T08:05:50.787Z,35.79
2023-05-07T08:06:55.983Z,35.79
2023-05-07T08:07:59.658Z,35.77
2023-05-07T08:09:04.754Z,35.87
2023-05-07T08:10:08.091Z,35.94
2023-05-07T08:11:12.057Z,35.98
2023-05-07T08:12:14.682Z,36.16
2023-05-07T08:13:18.172Z,36.33
2023-05-07T08:14:20.709Z,36.54
2023-05-07T08:15:24.563Z,36.71
2023-05-07T08:16:27.119Z,36.79
2023-05-07T08:17:30.791Z,36.92
2023-05-07T08:18:33.209Z,36.98
2023-05-07T08:19:36.504Z,37.03
2023-05-07T08:20:41.180Z,37.10
2023-05-07T08:21:44.525Z,37.15
2023-05-07T08:22:47.009Z,37.23
2023-05-07T08:23:50.586Z,37.26
2023-05-07T08:24:54.784Z,37.26
2023-05-07T08:25:58.689Z,37.34
2023-05-07T08:27:01.191Z,37.33
2023-05-07T08:28:05.587Z,37.40
2023-05-07T08:29:08.994Z,37.52
2023-05-07T08:30:13.602Z,37.58
2023-05-07T08:31:17.163Z,37.59
2023-05-07T08:32:19.764Z,37.60
2023-05-07T08:33:24.683Z,37.69
2023-05-07T08:34:28.204Z,37.87
2023-05-07T08:35:31.914Z,38.06
2023-05-07T08:36:35.568Z,38.21
2023-05-07T08:37:40.355Z,38.27
2023-05-07T08:38:46.833Z,38.17
2023-05-07T08:39:50.455Z,37.95
2023-05-07T08:40:55.464Z,37.81
2023-05-07T08:42:03.297Z,37.64
2023-05-07T08:43:07.680Z,37.62
2023-05-07T08:44:15.160Z,37.60
2023-05-07T08:45:20.246Z,37.63
2023-05-07T08:46:24.660Z,37.66
2023-05-07T08:47:34.478Z,37.72
2023-05-07T08:48:40.858Z,37.68
2023-05-07T08:49:44.418Z,37.58
2023-05-07T08:50:50.052Z,37.41
2023-05-07T08:51:54.918Z,37.36
2023-05-07T08:52:59.359Z,37.32
2023-05-07T08:54:04.363Z,37.28
2023-05-07T08:55:10.477Z,37.31
2023-05-07T08:56:16.312Z,37.33
2023-05-07T08:57:21.008Z,37.34
2023-05-07T08:58:26.515Z,37.32
2023-05-07T08:59:32.730Z,37.31
2023-05-07T09:00:37.148Z,37.09
2023-05-07T09:01:43.146Z,36.66
2023-05-07T09:02:46.250Z,36.36
2023-05-07T09:03:50.169Z,36.38
2023-05-07T09:04:54.630Z,36.51
2023-05-07T09:05:58.037Z,36.69
2023-05-07T09:07:06.542Z,37.01
2023-05-07T09:08:17.062Z,37.41
2023-05-07T09:09:19.823Z,37.77
2023-05-07T09:10:26.872Z,38.04
2023-05-07T09:11:32.242Z,38.08
2023-05-07T09:12:36.357Z,38.17
2023-05-07T09:13:40.170Z,38.21
2023-05-07T09:14:42.722Z,38.21
2023-05-07T09:15:46.407Z,38.03
2023-05-07T09:16:54.824Z,37.80
2023-05-07T09:18:02.601Z,37.46
2023-05-07T09:19:06.076Z,37.29
2023-05-07T09:20:11.000Z,37.28
2023-05-07T09:21:17.921Z,37.26
2023-05-07T09:22:21.404Z,37.22
2023-05-07T09:23:24.753Z,37.22
2023-05-07T09:24:29.572Z,37.19
2023-05-07T09:25:34.577Z,37.23
2023-05-07T09:26:39.628Z,37.34
2023-05-07T09:27:44.115Z,37.43
2023-05-07T09:28:48.807Z,37.51
2023-05-07T09:29:51.599Z,37.57
2023-05-07T09:30:54.972Z,37.63
2023-05-07T09:31:57.437Z,37.52
2023-05-07T09:33:02.587Z,37.44
2023-05-07T09:34:06.106Z,37.23
2023-05-07T09:35:17.804Z,36.99
2023-05-07T09:36:20.369Z,36.96
2023-05-07T09:37:24.100Z,36.95
2023-05-07T09:38:28.268Z,36.88
2023-05-07T09:39:41.988Z,36.64
2023-05-07T09:40:44.445Z,36.44
2023-05-07T09:41:52.430Z,36.13
2023-05-07T09:42:56.152Z,35.83
2023-05-07T09:44:01.463Z,35.60
2023-05-07T09:45:06.665Z,35.43
2023-05-07T09:46:14.809Z,35.40
2023-05-07T09:47:21.483Z,35.37
2023-05-07T09:48:24.505Z,35.39
2023-05-07T09:49:33.181Z,35.36
2023-05-07T09:50:39.113Z,35.36
2023-05-07T09:51:49.128Z,35.28
2023-05-07T09:52:52.572Z,35.24
2023-05-07T09:53:55.330Z,35.25
2023-05-07T09:55:01.872Z,35.21
2023-05-07T09:56:05.456Z,35.17
2023-05-07T09:57:13.740Z,35.04
2023-05-07T09:58:17.566Z,34.82
2023-05-07T09:59:22.587Z,34.53
2023-05-07T10:00:27.966Z,34.28
2023-05-07T10:01:35.266Z,34.08
2023-05-07T10:02:38.714Z,33.91
2023-05-07T10:03:44.187Z,33.71
2023-05-07T10:04:47.557Z,33.58
2023-05-07T10:05:52.593Z,33.44
2023-05-07T10:06:57.707Z,33.26
2023-05-07T10:08:03.959Z,33.00
2023-05-07T10:09:09.202Z,32.74
2023-05-07T10:10:12.444Z,32.45
2023-05-07T10:11:17.418Z,32.20
2023-05-07T10:12:22.448Z,32.07
2023-05-07T10:13:26.890Z,32.03
2023-05-07T10:14:30.964Z,32.03
2023-05-07T10:15:33.720Z,31.98
2023-05-07T10:16:38.915Z,31.95
2023-05-07T10:17:42.512Z,31.81
2023-05-07T10:18:46.676Z,31.68
2023-05-07T10:19:50.093Z,31.58
2023-05-07T10:20:55.166Z,31.51
2023-05-07T10:22:04.430Z,31.35
2023-05-07T10:23:08.551Z,31.19
2023-05-07T10:24:18.409Z,31.04
2023-05-07T10:25:24.662Z,30.84
2023-05-07T10:26:31.107Z,30.70
2023-05-07T10:27:36.147Z,30.58
2023-05-07T10:28:42.189Z,30.54
2023-05-07T10:29:55.251Z,30.51
2023-05-07T10:31:10.266Z,30.48
2023-05-07T10:32:27.832Z,30.39
2023-05-07T10:33:33.287Z,30.36
2023-05-07T10:34:38.801Z,30.34
2023-05-07T10:35:45.102Z,30.35
2023-05-07T10:36:49.223Z,30.31
2023-05-07T10:37:53.262Z,30.31
2023-05-07T10:38:57.231Z,30.34
2023-05-07T10:40:00.980Z,30.36
2023-05-07T10:41:06.688Z,30.29
2023-05-07T10:42:11.052Z,30.13
2023-05-07T10:43:15.795Z,29.97
2023-05-07T10:44:29.689Z,29.76
2023-05-07T10:45:34.095Z,29.65
2023-05-07T10:46:36.777Z,29.48
2023-05-07T10:49:22.814Z,29.10
2023-05-07T10:50:27.895Z,29.10
2023-05-07T10:51:32.315Z,29.15
2023-05-07T10:52:36.818Z,29.14
2023-05-07T10:53:39.213Z,29.16
2023-05-07T10:54:43.439Z,29.13
2023-05-07T10:55:47.686Z,29.16
2023-05-07T10:56:52.193Z,29.17
2023-05-07T10:57:55.758Z,29.15
2023-05-07T10:59:43.071Z,29.03
2023-05-07T11:00:45.828Z,29.01
2023-05-07T11:01:57.316Z,29.01
2023-05-07T11:03:08.282Z,28.98
2023-05-07T11:04:16.856Z,28.97
2023-05-07T11:05:22.792Z,28.93
2023-05-07T11:06:26.706Z,28.93
2023-05-07T11:07:31.193Z,28.90
2023-05-07T11:08:55.411Z,28.78
2023-05-07T11:10:02.163Z,28.73
2023-05-07T11:11:05.940Z,28.72
2023-05-07T11:12:08.744Z,28.72
2023-05-07T11:13:12.680Z,28.72
2023-05-07T11:14:46.917Z,28.60
2023-05-07T11:15:50.811Z,28.54
2023-05-07T11:17:03.910Z,28.49
2023-05-07T11:18:08.164Z,28.41
2023-05-07T11:19:12.711Z,28.34
2023-05-07T11:20:16.599Z,28.27
2023-05-07T11:21:39.936Z,28.13
2023-05-07T11:22:42.589Z,28.10
2023-05-07T11:24:02.282Z,28.06
2023-05-07T11:25:05.872Z,28.02
2023-05-07T11:26:11.095Z,27.99
2023-05-07T11:27:14.990Z,27.96
2023-05-07T11:28:18.556Z,27.97
2023-05-07T11:29:24.593Z,27.99
2023-05-07T11:30:27.529Z,28.00
2023-05-07T11:31:31.993Z,27.98
2023-05-07T11:32:35.685Z,27.92
2023-05-07T11:33:39.691Z,27.89
2023-05-07T11:34:43.784Z,27.82
2023-05-07T11:35:47.978Z,27.80
2023-05-07T11:36:51.467Z,27.78
2023-05-07T11:38:01.321Z,27.73
2023-05-07T11:39:05.030Z,27.66
2023-05-07T11:40:09.194Z,27.64
2023-05-07T11:41:12.695Z,27.57
2023-05-07T11:42:28.211Z,27.49
2023-05-07T11:43:31.067Z,27.48
2023-05-07T11:44:49.308Z,27.44
2023-05-07T11:45:52.787Z,27.43
2023-05-07T11:46:56.216Z,27.40
2023-05-07T11:47:58.711Z,27.34
2023-05-07T11:49:03.321Z,27.31
2023-05-07T11:50:09.334Z,27.26
2023-05-07T11:51:13.610Z,27.24
2023-05-07T11:52:16.278Z,27.20
2023-05-07T11:53:22.214Z,27.20
2023-05-07T11:54:24.653Z,27.19
2023-05-07T11:55:28.580Z,27.20
2023-05-07T11:56:31.926Z,27.17
2023-05-07T11:57:35.095Z,27.17
2023-05-07T11:58:38.924Z,27.18
2023-05-07T11:59:42.504Z,27.17
2023-05-07T12:00:51.833Z,27.15
2023-05-07T12:02:00.294Z,27.12
2023-05-07T12:03:05.605Z,27.12
2023-05-07T12:04:09.427Z,27.11
2023-05-07T12:05:12.350Z,27.10
2023-05-07T12:06:18.057Z,27.11
2023-05-07T12:07:20.545Z,27.12
2023-05-07T12:08:24.459Z,27.11
2023-05-07T12:09:27.595Z,27.12
2023-05-07T12:10:31.010Z,27.13
2023-05-07T12:11:33.582Z,27.13
2023-05-07T12:12:41.621Z,27.11
2023-05-07T12:13:44.493Z,27.12
2023-05-07T12:14:48.446Z,27.15
2023-05-07T12:15:54.667Z,27.17
2023-05-07T12:16:58.553Z,27.20
2023-05-07T12:18:01.411Z,27.21
2023-05-07T12:19:05.105Z,27.23
2023-05-07T12:20:08.952Z,27.24
2023-05-07T12:21:13.094Z,27.23
2023-05-07T12:22:16.997Z,27.22
2023-05-07T12:23:19.920Z,27.19
2023-05-07T12:24:23.324Z,27.18
2023-05-07T12:25:25.864Z,27.17
2023-05-07T12:26:29.574Z,27.15
2023-05-07T12:27:32.262Z,27.16
2023-05-07T12:28:40.853Z,27.17
2023-05-07T12:29:47.335Z,27.16
2023-05-07T12:30:52.934Z,27.15
2023-05-07T12:31:56.814Z,27.10
2023-05-07T12:33:01.432Z,27.10
2023-05-07T12:34:05.216Z,27.08
2023-05-07T12:35:08.397Z,27.07
2023-05-07T12:36:15.627Z,27.05
2023-05-07T12:37:18.284Z,27.11
2023-05-07T12:38:21.670Z,27.18
2023-05-07T12:39:25.127Z,27.21
2023-05-07T12:40:37.394Z,27.27
2023-05-07T12:41:56.312Z,27.24
2023-05-07T12:43:00.930Z,27.25
2023-05-07T12:44:06.934Z,27.24
2023-05-07T12:45:11.141Z,27.24
2023-05-07T12:46:17.729Z,27.25
2023-05-07T12:47:22.247Z,27.27
2023-05-07T12:48:28.134Z,27.34
2023-05-07T12:49:30.848Z,27.33
2023-05-07T12:50:35.334Z,27.37
2023-05-07T12:51:38.897Z,27.40
2023-05-07T12:52:41.726Z,27.42
2023-05-07T12:53:46.468Z,27.45
2023-05-07T12:54:49.519Z,27.41
2023-05-07T12:55:55.487Z,27.38
2023-05-07T12:57:06.844Z,27.35
2023-05-07T12:58:09.476Z,27.35
2023-05-07T12:59:12.896Z,27.38
2023-05-07T13:00:16.204Z,27.40
2023-05-07T13:01:31.137Z,27.40
2023-05-07T13:02:56.567Z,27.38
2023-05-07T13:04:03.924Z,27.40
2023-05-07T13:05:07.435Z,27.43
2023-05-07T13:06:13.341Z,27.43
2023-05-07T13:07:15.880Z,27.37
2023-05-07T13:08:35.365Z,27.29
2023-05-07T13:09:40.335Z,27.26
2023-05-07T13:10:43.801Z,27.28
2023-05-07T13:11:47.167Z,27.27
2023-05-07T13:12:49.626Z,27.30
2023-05-07T13:13:53.104Z,27.39
2023-05-07T13:14:55.615Z,27.42
2023-05-07T13:15:59.187Z,27.46
2023-05-07T13:17:01.633Z,27.46
2023-05-07T13:18:06.529Z,27.49
2023-05-07T13:19:11.312Z,27.49
2023-05-07T13:20:14.089Z,27.52
2023-05-07T13:21:17.880Z,27.57
2023-05-07T13:22:20.895Z,27.57
2023-05-07T13:23:24.484Z,27.58
2023-05-07T13:24:26.890Z,27.59
2023-05-07T13:25:30.282Z,27.59
2023-05-07T13:26:33.345Z,27.57
2023-05-07T13:27:38.079Z,27.60
2023-05-07T13:28:41.597Z,27.57
2023-05-07T13:29:44.004Z,27.56
2023-05-07T13:30:47.307Z,27.56
2023-05-07T13:31:50.502Z,27.55
2023-05-07T13:32:57.677Z,27.57
2023-05-07T13:34:02.412Z,27.57
2023-05-07T13:35:05.731Z,27.61
2023-05-07T13:36:09.497Z,27.66
2023-05-07T13:37:12.699Z,27.70
2023-05-07T13:38:17.255Z,27.71
2023-05-07T13:39:20.120Z,27.69
2023-05-07T13:40:23.894Z,27.70
2023-05-07T13:41:26.300Z,27.70
2023-05-07T13:42:30.282Z,27.68
2023-05-07T13:43:34.683Z,27.68
2023-05-07T13:44:37.073Z,27.69
2023-05-07T13:45:40.442Z,27.69
2023-05-07T13:46:43.452Z,27.71
2023-05-07T13:47:48.504Z,27.74
2023-05-07T13:48:52.207Z,27.76
2023-05-07T13:49:57.134Z,27.82
2023-05-07T13:51:00.807Z,27.85
2023-05-07T13:52:03.411Z,27.89
2023-05-07T13:53:07.015Z,27.88
2023-05-07T13:54:09.437Z,27.86
2023-05-07T13:55:13.585Z,27.84
2023-05-07T13:56:16.302Z,27.83
2023-05-07T13:57:19.723Z,27.82
2023-05-07T13:58:22.880Z,27.80
2023-05-07T13:59:26.223Z,27.82
2023-05-07T14:00:30.590Z,27.79
2023-05-07T14:01:36.040Z,27.79
2023-05-07T14:02:39.610Z,27.82
2023-05-07T14:03:43.319Z,27.84
2023-05-07T14:04:46.968Z,27.86
2023-05-07T14:05:51.742Z,27.88
2023-05-07T14:06:54.148Z,27.91
2023-05-07T14:07:59.615Z,27.93
2023-05-07T14:09:03.413Z,27.93
2023-05-07T14:10:07.880Z,27.94
2023-05-07T14:11:10.448Z,27.91
2023-05-07T14:12:13.865Z,27.90
2023-05-07T14:13:16.549Z,27.88
2023-05-07T14:14:20.234Z,27.84
2023-05-07T14:15:22.836Z,27.78
2023-05-07T14:16:26.323Z,27.76
2023-05-07T14:17:28.834Z,27.76
2023-05-07T14:18:32.361Z,27.78
2023-05-07T14:19:36.632Z,27.78
2023-05-07T14:20:39.075Z,27.78
2023-05-07T14:21:43.739Z,27.77
2023-05-07T14:22:47.354Z,27.78
2023-05-07T14:23:49.844Z,27.76
2023-05-07T14:25:05.918Z,27.80
2023-05-07T14:26:09.526Z,27.80
2023-05-07T14:27:13.177Z,27.84
2023-05-07T14:28:15.709Z,27.88
2023-05-07T14:29:23.798Z,27.94
2023-05-07T14:30:27.725Z,27.97
2023-05-07T14:31:31.300Z,28.00
2023-05-07T14:32:34.969Z,28.03
2023-05-07T14:33:39.138Z,28.08
2023-05-07T14:34:45.025Z,28.10
2023-05-07T14:35:49.927Z,28.09
2023-05-07T14:36:54.723Z,28.10
2023-05-07T14:37:58.157Z,28.11
2023-05-07T14:39:00.616Z,28.14
2023-05-07T14:40:04.899Z,28.16
2023-05-07T14:41:07.587Z,28.15
2023-05-07T14:42:11.096Z,28.15
2023-05-07T14:43:13.858Z,28.16
2023-05-07T14:44:17.359Z,28.17
2023-05-07T14:45:19.807Z,28.17
2023-05-07T14:46:25.169Z,28.20
2023-05-07T14:47:28.667Z,28.19
2023-05-07T14:48:31.214Z,28.20
2023-05-07T14:49:34.633Z,28.20
2023-05-07T14:50:37.285Z,28.21
2023-05-07T14:51:41.025Z,28.19
2023-05-07T14:52:44.900Z,28.19
2023-05-07T14:53:48.490Z,28.18
2023-05-07T14:54:50.868Z,28.15
2023-05-07T14:55:55.042Z,28.15
2023-05-07T14:56:58.434Z,28.13
2023-05-07T14:58:01.092Z,28.12
2023-05-07T14:59:05.051Z,28.10
2023-05-07T15:00:10.772Z,28.09
2023-05-07T15:01:15.655Z,28.09
2023-05-07T15:02:21.202Z,28.10
2023-05-07T15:03:24.330Z,28.10
2023-05-07T15:04:27.927Z,28.11
2023-05-07T15:05:30.393Z,28.10
2023-05-07T15:06:34.579Z,28.11
2023-05-07T15:07:37.080Z,28.13
2023-05-07T15:08:41.786Z,28.13
2023-05-07T15:09:45.474Z,28.13
2023-05-07T15:10:48.496Z,28.12
2023-05-07T15:11:51.881Z,28.15
2023-05-07T15:12:54.458Z,28.18
2023-05-07T15:13:58.315Z,28.22
2023-05-07T15:15:01.049Z,28.26
2023-05-07T15:16:04.486Z,28.29
2023-05-07T15:17:07.556Z,28.34
2023-05-07T15:18:10.952Z,28.41
2023-05-07T15:19:18.622Z,28.41
2023-05-07T15:20:25.772Z,28.41
2023-05-07T15:21:41.077Z,28.41
2023-05-07T15:23:16.453Z,28.35
2023-05-07T15:24:25.563Z,28.33
2023-05-07T15:25:32.787Z,28.35
2023-05-07T15:26:37.768Z,28.39
2023-05-07T15:27:51.466Z,28.39
2023-05-07T15:28:57.542Z,28.35
2023-05-07T15:30:00.171Z,28.35
2023-05-07T15:31:03.729Z,28.34
2023-05-07T15:32:08.004Z,28.34
2023-05-07T15:33:10.772Z,28.32
2023-05-07T15:34:16.892Z,28.33
2023-05-07T15:35:22.822Z,28.31
2023-05-07T15:36:27.188Z,28.31
2023-05-07T15:37:29.612Z,28.30
2023-05-07T15:38:33.017Z,28.31
2023-05-07T15:39:36.996Z,28.30
2023-05-07T15:40:42.920Z,28.28
2023-05-07T15:41:45.557Z,28.29
2023-05-07T15:42:49.140Z,28.26
2023-05-07T15:43:53.769Z,28.25
2023-05-07T15:44:57.419Z,28.22
2023-05-07T15:46:01.200Z,28.20
2023-05-07T15:47:04.863Z,28.16
2023-05-07T15:48:07.501Z,28.17
2023-05-07T15:49:11.643Z,28.14
2023-05-07T15:50:14.197Z,28.08
2023-05-07T15:51:17.819Z,28.03
2023-05-07T15:52:21.831Z,27.97
2023-05-07T15:53:25.226Z,27.94
2023-05-07T15:54:27.704Z,27.90
2023-05-07T15:55:32.675Z,27.90
2023-05-07T15:56:35.157Z,27.88
2023-05-07T15:57:40.239Z,27.87
2023-05-07T15:58:42.941Z,27.87
2023-05-07T15:59:46.509Z,27.87
2023-05-07T16:00:49.786Z,27.87
2023-05-07T16:01:54.052Z,27.87
2023-05-07T16:02:56.904Z,27.88
2023-05-07T16:04:01.466Z,27.88
2023-05-07T16:05:08.971Z,27.88
2023-05-07T16:06:13.889Z,27.88
2023-05-07T16:07:16.339Z,27.91
2023-05-07T16:08:19.838Z,27.88
2023-05-07T16:09:22.508Z,27.86
2023-05-07T16:10:27.006Z,27.82
2023-05-07T16:11:33.933Z,27.76
2023-05-07T16:12:37.528Z,27.73
2023-05-07T16:13:40.293Z,27.70
2023-05-07T16:14:43.968Z,27.66
2023-05-07T16:15:46.654Z,27.65
2023-05-07T16:16:50.481Z,27.63
2023-05-07T16:17:58.298Z,27.60
2023-05-07T16:19:02.321Z,27.58
2023-05-07T16:20:06.559Z,27.56
2023-05-07T16:21:13.075Z,27.56
2023-05-07T16:22:16.286Z,27.53
2023-05-07T16:23:19.785Z,27.54
2023-05-07T16:24:23.271Z,27.54
2023-05-07T16:25:28.233Z,27.52
2023-05-07T16:26:32.143Z,27.50
2023-05-07T16:27:35.622Z,27.50
2023-05-07T16:28:38.243Z,27.47
2023-05-07T16:29:41.910Z,27.44
2023-05-07T16:30:45.590Z,27.43
2023-05-07T16:31:48.129Z,27.39
2023-05-07T16:32:52.079Z,27.36
2023-05-07T16:33:54.678Z,27.34
2023-05-07T16:34:58.148Z,27.31
2023-05-07T16:36:00.566Z,27.29
2023-05-07T16:37:05.804Z,27.26
2023-05-07T16:38:11.922Z,27.24
2023-05-07T16:39:15.409Z,27.21
2023-05-07T16:40:18.002Z,27.18
2023-05-07T16:41:23.160Z,27.15
2023-05-07T16:42:27.114Z,27.12
2023-05-07T16:43:30.611Z,27.08
2023-05-07T16:44:33.525Z,27.04
2023-05-07T16:45:36.983Z,27.02
2023-05-07T16:46:39.775Z,26.99
2023-05-07T16:47:43.246Z,26.94
2023-05-07T16:48:45.882Z,26.90
2023-05-07T16:49:50.534Z,26.88
2023-05-07T16:50:52.996Z,26.85
2023-05-07T16:51:56.843Z,26.81
2023-05-07T16:52:59.514Z,26.80
2023-05-07T16:54:03.355Z,26.77
2023-05-07T16:55:06.865Z,26.72
2023-05-07T16:56:10.535Z,26.69
2023-05-07T16:57:13.417Z,26.65
2023-05-07T16:58:18.289Z,26.62
2023-05-07T16:59:21.635Z,26.62
2023-05-07T17:00:27.847Z,26.61
2023-05-07T17:01:39.126Z,26.55
2023-05-07T17:02:47.275Z,26.50
2023-05-07T17:03:50.944Z,26.50
2023-05-07T17:04:53.565Z,26.46
2023-05-07T17:05:57.714Z,26.44
2023-05-07T17:07:00.169Z,26.38
2023-05-07T17:08:03.544Z,26.36
2023-05-07T17:09:07.041Z,26.30
2023-05-07T17:10:10.207Z,26.30
2023-05-07T17:11:13.670Z,26.25
2023-05-07T17:12:16.886Z,26.25
2023-05-07T17:13:21.734Z,26.20
2023-05-07T17:14:24.251Z,26.19
2023-05-07T17:15:27.910Z,26.16
2023-05-07T17:16:30.351Z,26.17
2023-05-07T17:17:34.015Z,26.12
2023-05-07T17:18:37.420Z,26.11
2023-05-07T17:19:40.191Z,26.08
2023-05-07T17:20:43.963Z,26.08
2023-05-07T17:21:46.516Z,26.05
2023-05-07T17:22:49.994Z,26.02
2023-05-07T17:23:52.794Z,25.97
2023-05-07T17:24:56.254Z,25.95
2023-05-07T17:25:58.797Z,25.92
2023-05-07T17:27:02.229Z,25.90
2023-05-07T17:28:04.885Z,25.87
2023-05-07T17:29:09.666Z,25.85
2023-05-07T17:30:13.629Z,25.84
2023-05-07T17:31:18.577Z,25.83
2023-05-07T17:32:21.199Z,25.85
2023-05-07T17:33:25.035Z,25.84
2023-05-07T17:34:29.459Z,25.85
2023-05-07T17:35:32.818Z,25.84
2023-05-07T17:36:36.492Z,25.83
2023-05-07T17:37:40.194Z,25.85
2023-05-07T17:38:42.616Z,25.82
2023-05-07T17:39:46.387Z,25.81
2023-05-07T17:40:49.028Z,25.77
2023-05-07T17:41:52.469Z,25.76
2023-05-07T17:42:56.205Z,25.76
2023-05-07T17:44:00.802Z,25.74
2023-05-07T17:45:05.829Z,25.74
2023-05-07T17:46:08.990Z,25.72
2023-05-07T17:47:14.290Z,25.70
2023-05-07T17:48:17.548Z,25.67
2023-05-07T17:49:21.424Z,25.65
2023-05-07T17:50:23.857Z,25.67
2023-05-07T17:51:36.084Z,25.64
2023-05-07T17:52:46.171Z,25.61
2023-05-07T17:53:48.770Z,25.61
2023-05-07T17:54:52.241Z,25.62
2023-05-07T17:55:54.925Z,25.60
2023-05-07T17:56:58.423Z,25.59
2023-05-07T17:58:02.796Z,25.60
2023-05-07T17:59:06.393Z,25.61
2023-05-07T18:00:11.516Z,25.59
2023-05-07T18:01:16.503Z,25.58
2023-05-07T18:02:19.266Z,25.56
2023-05-07T18:03:24.636Z,25.54
2023-05-07T18:04:28.282Z,25.50
2023-05-07T18:05:31.891Z,25.49
2023-05-07T18:06:35.317Z,25.45
2023-05-07T18:07:37.802Z,25.44
2023-05-07T18:08:41.321Z,25.40
2023-05-07T18:09:43.867Z,25.37
2023-05-07T18:10:47.421Z,25.39
2023-05-07T18:11:49.843Z,25.35
2023-05-07T18:12:53.382Z,25.33
2023-05-07T18:14:02.026Z,25.31
2023-05-07T18:15:07.844Z,25.28
2023-05-07T18:16:11.823Z,25.25
2023-05-07T18:17:15.288Z,25.23
2023-05-07T18:18:18.749Z,25.23
2023-05-07T18:19:22.796Z,25.23
2023-05-07T18:20:26.180Z,25.20
2023-05-07T18:21:28.748Z,25.18
2023-05-07T18:22:32.096Z,25.20
2023-05-07T18:23:36.738Z,25.21
2023-05-07T18:24:40.246Z,25.20
2023-05-07T18:25:42.675Z,25.18
2023-05-07T18:26:46.058Z,25.15
2023-05-07T18:27:49.443Z,25.13
2023-05-07T18:28:51.896Z,25.13
2023-05-07T18:29:56.126Z,25.12
2023-05-07T18:30:58.617Z,25.08
2023-05-07T18:32:03.372Z,25.08
2023-05-07T18:33:08.184Z,25.05
2023-05-07T18:34:11.667Z,25.02
2023-05-07T18:35:14.212Z,25.03
2023-05-07T18:36:18.197Z,25.01
2023-05-07T18:37:22.532Z,24.99
2023-05-07T18:38:26.419Z,24.98
2023-05-07T18:39:29.903Z,24.99
2023-05-07T18:40:32.337Z,24.97
2023-05-07T18:41:36.610Z,24.96
2023-05-07T18:42:39.973Z,24.94
2023-05-07T18:43:42.735Z,24.92
2023-05-07T18:44:46.422Z,24.90
2023-05-07T18:45:49.272Z,24.90
2023-05-07T18:46:52.647Z,24.88
2023-05-07T18:47:56.449Z,24.88
2023-05-07T18:48:59.984Z,24.87
2023-05-07T18:50:02.451Z,24.86
2023-05-07T18:51:05.974Z,24.84
2023-05-07T18:52:09.523Z,24.82
2023-05-07T18:53:11.969Z,24.80
2023-05-07T18:54:15.410Z,24.79
2023-05-07T18:55:18.197Z,24.78
2023-05-07T18:56:21.852Z,24.76
2023-05-07T18:57:24.862Z,24.76
2023-05-07T18:58:28.342Z,24.73
2023-05-07T18:59:30.810Z,24.72
2023-05-07T19:00:34.306Z,24.72
2023-05-07T19:01:37.857Z,24.71
2023-05-07T19:02:41.569Z,24.67
2023-05-07T19:03:46.385Z,24.67
2023-05-07T19:04:49.078Z,24.65
2023-05-07T19:05:52.704Z,24.62
2023-05-07T19:06:56.227Z,24.62
2023-05-07T19:07:58.850Z,24.62